createdAt,value
2022-07-29T03:32:49.244Z,108.00
2022-07-29T03:33:51.398Z,116.00
2022-07-29T03:34:53.516Z,120.00
2022-07-29T03:35:54.550Z,132.00
2022-07-29T03:36:56.635Z,140.00
2022-07-29T03:37:58.760Z,148.00
2022-07-29T03:38:59.963Z,152.00
2022-07-29T03:40:01.178Z,156.00
2022-07-29T03:41:03.272Z,164.00
2022-07-29T03:42:05.409Z,172.00
2022-07-29T03:43:07.604Z,180.00
2022-07-29T03:44:08.564Z,184.00
2022-07-29T03:45:10.683Z,192.00
2022-07-29T03:46:12.855Z,200.00
2022-07-29T03:47:15.064Z,208.00
2022-07-29T03:48:17.184Z,216.00
2022-07-29T03:49:19.469Z,228.00
2022-07-29T03:50:20.623Z,236.00
2022-07-29T03:51:33.248Z,248.00
2022-07-29T03:52:24.747Z,256.00
2022-07-29T03:53:25.789Z,268.00
2022-07-29T03:54:27.915Z,280.00
2022-07-29T03:55:30.132Z,296.00
2022-07-29T03:56:31.083Z,316.00
2022-07-29T03:57:39.337Z,340.00
2022-07-29T03:58:34.498Z,368.00
2022-07-29T03:59:35.689Z,400.00
2022-07-29T04:00:37.811Z,448.00
2022-07-29T04:01:40.072Z,496.00
2022-07-29T04:02:41.067Z,540.00
2022-07-29T04:03:43.245Z,572.00
2022-07-29T04:04:44.481Z,596.00
2022-07-29T04:05:46.161Z,616.00
2022-07-29T04:06:48.333Z,640.00
2022-07-29T04:07:48.327Z,676.00
2022-07-29T04:08:50.534Z,728.00
2022-07-29T04:09:51.501Z,788.00
2022-07-29T04:10:52.460Z,856.00
2022-07-29T04:12:02.711Z,932.00
2022-07-29T04:12:56.904Z,1000.00
2022-07-29T04:13:56.910Z,1072.00
2022-07-29T04:14:59.035Z,1136.00
2022-07-29T04:17:03.019Z,1252.00
2022-07-29T04:18:05.141Z,1296.00
2022-07-29T04:19:07.269Z,1336.00
2022-07-29T04:20:09.405Z,1368.00
2022-07-29T04:21:11.563Z,1396.00
2022-07-29T04:22:13.738Z,1420.00
2022-07-29T04:23:14.770Z,1452.00
2022-07-29T04:24:22.960Z,1480.00
2022-07-29T04:25:18.309Z,1492.00
2022-07-29T04:26:20.671Z,1488.00
2022-07-29T04:27:27.629Z,1480.00
2022-07-29T04:28:22.742Z,1456.00
2022-07-29T04:29:24.872Z,1424.00
2022-07-29T04:30:26.962Z,1408.00
2022-07-29T04:31:29.237Z,1404.00
2022-07-29T04:32:30.290Z,1400.00
2022-07-29T04:33:31.343Z,1412.00
2022-07-29T04:34:33.507Z,1432.00
2022-07-29T04:35:38.057Z,1460.00
2022-07-29T04:36:37.155Z,1492.00
2022-07-29T04:37:39.348Z,1528.00
2022-07-29T04:38:40.529Z,1576.00
2022-07-29T04:39:42.651Z,1648.00
2022-07-29T04:40:44.793Z,1740.00
2022-07-29T04:41:47.215Z,1832.00
2022-07-29T04:42:49.438Z,1928.00
2022-07-29T04:43:50.688Z,2012.00
2022-07-29T04:44:52.555Z,2080.00
2022-07-29T04:46:00.851Z,2120.00
2022-07-29T04:46:55.955Z,2156.00
2022-07-29T04:47:58.038Z,2196.00
2022-07-29T04:49:00.350Z,2260.00
2022-07-29T04:50:01.384Z,2344.00
2022-07-29T04:51:02.566Z,2404.00
2022-07-29T04:52:03.721Z,2468.00
2022-07-29T04:53:04.889Z,2536.00
2022-07-29T04:54:06.546Z,2624.00
2022-07-29T04:55:08.675Z,2704.00
2022-07-29T04:56:16.852Z,2788.00
2022-07-29T04:57:13.100Z,2860.00
2022-07-29T04:58:15.241Z,2920.00
2022-07-29T04:59:16.203Z,2976.00
2022-07-29T05:00:18.339Z,3076.00
2022-07-29T05:01:25.653Z,3100.00
2022-07-29T05:02:21.022Z,3160.00
2022-07-29T05:03:22.355Z,3292.00
2022-07-29T05:04:23.360Z,3464.00
2022-07-29T05:05:25.484Z,3684.00
2022-07-29T05:06:33.728Z,3908.00
2022-07-29T05:07:28.864Z,4076.00
2022-07-29T05:08:30.987Z,4240.00
2022-07-29T05:09:33.155Z,4456.00
2022-07-29T05:10:35.337Z,4576.00
2022-07-29T05:11:37.521Z,4744.00
2022-07-29T05:12:39.674Z,4968.00
2022-07-29T05:13:46.070Z,5276.00
2022-07-29T05:14:43.071Z,5328.00
2022-07-29T05:15:44.431Z,5636.00
2022-07-29T05:16:45.371Z,5924.00
2022-07-29T05:17:47.542Z,5924.00
2022-07-29T05:18:49.899Z,5912.00
2022-07-29T05:19:52.157Z,6088.00
2022-07-29T05:20:54.479Z,6104.00
2022-07-29T05:21:56.612Z,6256.00
2022-07-29T05:22:58.865Z,6368.00
2022-07-29T05:24:00.955Z,6200.00
2022-07-29T05:25:06.989Z,6124.00
2022-07-29T05:26:04.344Z,6440.00
2022-07-29T05:27:05.501Z,6284.00
2022-07-29T05:28:06.479Z,6656.00
2022-07-29T05:29:07.659Z,6704.00
2022-07-29T05:30:09.906Z,6592.00
2022-07-29T05:31:11.000Z,6500.00
2022-07-29T05:32:12.034Z,6092.00
2022-07-29T05:33:34.737Z,6304.00
2022-07-29T05:34:17.106Z,5808.00
2022-07-29T05:35:17.279Z,5860.00
2022-07-29T05:36:18.453Z,5728.00
2022-07-29T05:37:19.673Z,5932.00
2022-07-29T05:38:27.860Z,6128.00
2022-07-29T05:39:23.129Z,6348.00
2022-07-29T05:40:24.396Z,6884.00
2022-07-29T05:41:32.772Z,6820.00
2022-07-29T05:42:27.943Z,6708.00
2022-07-29T05:43:30.097Z,6680.00
2022-07-29T05:44:32.256Z,6740.00
2022-07-29T05:45:34.411Z,6764.00
2022-07-29T05:46:36.680Z,6716.00
2022-07-29T05:47:37.789Z,6668.00
2022-07-29T05:48:39.010Z,6972.00
2022-07-29T05:49:41.189Z,7196.00
2022-07-29T05:50:44.162Z,7292.00
2022-07-29T05:51:51.438Z,7392.00
2022-07-29T05:52:46.562Z,7380.00
2022-07-29T05:54:49.928Z,7180.00
2022-07-29T05:55:52.057Z,7172.00
2022-07-29T05:57:00.438Z,7096.00
2022-07-29T05:57:55.550Z,7132.00
2022-07-29T05:58:57.706Z,7156.00
2022-07-29T05:59:58.899Z,7280.00
2022-07-29T06:01:00.625Z,7484.00
2022-07-29T06:02:01.972Z,7716.00
2022-07-29T06:03:03.714Z,7748.00
2022-07-29T06:04:05.884Z,7968.00
2022-07-29T06:05:07.291Z,8792.00
2022-07-29T06:06:09.534Z,8924.00
2022-07-29T06:07:10.534Z,8264.00
2022-07-29T06:08:12.655Z,7888.00
2022-07-29T06:09:14.776Z,7672.00
2022-07-29T06:10:16.894Z,7412.00
2022-07-29T06:11:17.845Z,7060.00
2022-07-29T06:12:18.836Z,6636.00
2022-07-29T06:13:20.034Z,6176.00
2022-07-29T06:14:21.249Z,5796.00
2022-07-29T06:15:23.390Z,5524.00
2022-07-29T06:16:31.633Z,5328.00
2022-07-29T06:17:26.997Z,5228.00
2022-07-29T06:18:34.401Z,5232.00
2022-07-29T06:19:29.512Z,5324.00
2022-07-29T06:20:30.984Z,5428.00
2022-07-29T06:21:32.307Z,5584.00
2022-07-29T06:22:33.592Z,5800.00
2022-07-29T06:23:34.639Z,6064.00
2022-07-29T06:24:36.749Z,6384.00
2022-07-29T06:25:39.062Z,6760.00
2022-07-29T06:26:41.457Z,7200.00
2022-07-29T06:27:42.411Z,7648.00
2022-07-29T06:28:43.384Z,7932.00
2022-07-29T06:29:45.471Z,7896.00
2022-07-29T06:30:47.594Z,7696.00
2022-07-29T06:31:48.797Z,7568.00
2022-07-29T06:32:51.126Z,7512.00
2022-07-29T06:33:52.082Z,6748.00
2022-07-29T06:34:54.721Z,6404.00
2022-07-29T06:35:55.671Z,6360.00
2022-07-29T06:36:56.057Z,6376.00
2022-07-29T06:37:59.564Z,6568.00
2022-07-29T06:38:58.589Z,6964.00
2022-07-29T06:40:06.312Z,7556.00
2022-07-29T06:41:01.452Z,8348.00
2022-07-29T06:42:03.610Z,9440.00
2022-07-29T06:43:04.800Z,10496.00
2022-07-29T06:44:07.076Z,10692.00
2022-07-29T06:45:09.493Z,11764.00
2022-07-29T06:46:11.340Z,11680.00
2022-07-29T06:47:12.410Z,17408.00
2022-07-29T06:48:14.538Z,14240.00
2022-07-29T06:49:16.722Z,21024.00
2022-07-29T06:50:24.035Z,13492.00
2022-07-29T06:51:21.778Z,10488.00
2022-07-29T06:52:22.081Z,9784.00
2022-07-29T06:53:23.034Z,9636.00
2022-07-29T06:54:24.023Z,9572.00
2022-07-29T06:55:25.473Z,9468.00
2022-07-29T06:56:26.637Z,9436.00
2022-07-29T06:57:28.770Z,9988.00
2022-07-29T06:58:30.933Z,14532.00
2022-07-29T06:59:35.540Z,34848.00
2022-07-29T07:00:33.776Z,45216.00
2022-07-29T07:01:36.093Z,43136.00
2022-07-29T07:02:37.182Z,21056.00
2022-07-29T07:03:39.403Z,15880.00
2022-07-29T07:04:41.522Z,16300.00
2022-07-29T07:05:43.616Z,24352.00
2022-07-29T07:06:45.734Z,44000.00
2022-07-29T07:07:47.862Z,44224.00
2022-07-29T07:08:50.000Z,42720.00
2022-07-29T07:09:51.294Z,43136.00
2022-07-29T07:10:53.461Z,45344.00
2022-07-29T07:11:54.419Z,46528.00
2022-07-29T07:12:56.538Z,48224.00
2022-07-29T07:14:03.003Z,48448.00
2022-07-29T07:15:00.071Z,46816.00
2022-07-29T07:16:01.097Z,45952.00
2022-07-29T07:17:02.354Z,21664.00
2022-07-29T07:18:03.391Z,42560.00
2022-07-29T07:19:05.509Z,40416.00
2022-07-29T07:20:07.606Z,35808.00
2022-07-29T07:21:08.872Z,44800.00
2022-07-29T07:22:11.084Z,45632.00
2022-07-29T07:23:13.261Z,47200.00
2022-07-29T07:24:15.647Z,48288.00
2022-07-29T07:25:16.795Z,45632.00
2022-07-29T07:26:19.130Z,38176.00
2022-07-29T07:27:20.081Z,36736.00
2022-07-29T07:28:28.229Z,50304.00
2022-07-29T07:29:23.390Z,50144.00
2022-07-29T07:30:24.548Z,46944.00
2022-07-29T07:31:26.700Z,43360.00
2022-07-29T07:32:27.968Z,38720.00
2022-07-29T07:33:28.969Z,47424.00
2022-07-29T07:34:31.068Z,48224.00
2022-07-29T07:35:33.191Z,46976.00
2022-07-29T07:36:35.319Z,48000.00
2022-07-29T07:37:37.495Z,47808.00
2022-07-29T07:38:39.583Z,47520.00
2022-07-29T07:39:41.686Z,44672.00
2022-07-29T07:40:43.968Z,47456.00
2022-07-29T07:41:44.890Z,49216.00
2022-07-29T07:42:47.018Z,40992.00
2022-07-29T07:43:49.155Z,49792.00
2022-07-29T07:45:12.227Z,51360.00
2022-07-29T07:45:53.694Z,53216.00
2022-07-29T07:46:54.838Z,52032.00
2022-07-29T07:47:56.999Z,52960.00
2022-07-29T07:48:59.138Z,54112.00
2022-07-29T07:50:01.259Z,53568.00
2022-07-29T07:51:03.369Z,51712.00
2022-07-29T07:52:04.459Z,52896.00
2022-07-29T07:53:05.657Z,55936.00
2022-07-29T07:54:07.758Z,56672.00
2022-07-29T07:55:09.848Z,56672.00
2022-07-29T07:56:12.875Z,55936.00
2022-07-29T07:57:14.163Z,54784.00
2022-07-29T07:58:16.298Z,51616.00
2022-07-29T07:59:18.406Z,50304.00
2022-07-29T08:00:22.971Z,52640.00
2022-07-29T08:01:22.435Z,53312.00
2022-07-29T08:02:24.724Z,54176.00
2022-07-29T08:03:25.672Z,55360.00
2022-07-29T08:04:29.087Z,55072.00
2022-07-29T08:05:29.244Z,54464.00
2022-07-29T08:06:33.400Z,57088.00
2022-07-29T08:07:33.163Z,55776.00
2022-07-29T08:08:35.340Z,53312.00
2022-07-29T08:09:37.495Z,56768.00
2022-07-29T08:10:39.595Z,54560.00
2022-07-29T08:11:52.211Z,53376.00
2022-07-29T08:12:43.891Z,57024.00
2022-07-29T08:13:44.803Z,59424.00
2022-07-29T08:14:46.960Z,60512.00
2022-07-29T08:15:49.070Z,57216.00
2022-07-29T08:16:51.216Z,57568.00
2022-07-29T08:17:52.165Z,56992.00
2022-07-29T08:18:54.620Z,57664.00
2022-07-29T08:19:55.657Z,60064.00
2022-07-29T08:20:56.621Z,59072.00
2022-07-29T08:21:57.644Z,60160.00
2022-07-29T08:22:59.728Z,61824.00
2022-07-29T08:24:06.690Z,61184.00
2022-07-29T08:25:02.990Z,60448.00
2022-07-29T08:26:05.132Z,63008.00
2022-07-29T08:27:21.265Z,65024.00
2022-07-29T08:28:09.451Z,66784.00
2022-07-29T08:29:10.622Z,67968.00
2022-07-29T08:30:12.835Z,67936.00
2022-07-29T08:31:15.204Z,66496.00
2022-07-29T08:32:31.011Z,64064.00
2022-07-29T08:33:24.925Z,63232.00
2022-07-29T08:34:18.867Z,63008.00
2022-07-29T08:35:20.035Z,63136.00
2022-07-29T08:36:22.304Z,64256.00
2022-07-29T08:37:23.296Z,64288.00
2022-07-29T08:38:25.529Z,67040.00
2022-07-29T08:39:26.691Z,67424.00
2022-07-29T08:40:31.926Z,61984.00
2022-07-29T08:41:30.120Z,66304.00
2022-07-29T08:42:32.202Z,62720.00
2022-07-29T08:43:34.281Z,63424.00
2022-07-29T08:44:36.366Z,66080.00
2022-07-29T08:45:38.524Z,67968.00
2022-07-29T08:46:40.755Z,66336.00
2022-07-29T08:47:41.832Z,68448.00
2022-07-29T08:48:42.859Z,72032.00
2022-07-29T08:49:43.808Z,68704.00
2022-07-29T08:50:46.523Z,72000.00
2022-07-29T08:51:49.201Z,70336.00
2022-07-29T08:52:49.470Z,76352.00
2022-07-29T08:53:51.557Z,72288.00
2022-07-29T08:54:53.656Z,75008.00
2022-07-29T08:55:55.745Z,84800.00
2022-07-29T08:56:57.844Z,67424.00
2022-07-29T08:57:59.928Z,48192.00
2022-07-29T08:59:01.085Z,39712.00
2022-07-29T09:00:08.015Z,48544.00
2022-07-29T09:01:05.064Z,49088.00
2022-07-29T09:02:05.110Z,43872.00
2022-07-29T09:03:07.184Z,59712.00
2022-07-29T09:04:09.357Z,78432.00
2022-07-29T09:05:11.497Z,79872.00
2022-07-29T09:06:13.659Z,68896.00
2022-07-29T09:07:15.781Z,49408.00
2022-07-29T09:08:17.920Z,48416.00
2022-07-29T09:09:20.005Z,62528.00
2022-07-29T09:10:22.110Z,73760.00
2022-07-29T09:11:24.192Z,44288.00
2022-07-29T09:12:29.077Z,45504.00
2022-07-29T09:13:27.425Z,37792.00
2022-07-29T09:14:29.508Z,53792.00
2022-07-29T09:15:31.604Z,80832.00
2022-07-29T09:16:52.162Z,85408.00
2022-07-29T09:17:35.919Z,57536.00
2022-07-29T09:18:36.842Z,42272.00
2022-07-29T09:19:39.055Z,44896.00
2022-07-29T09:20:41.290Z,36224.00
2022-07-29T09:21:42.238Z,50208.00
2022-07-29T09:22:44.376Z,56768.00
2022-07-29T09:23:46.463Z,55168.00
2022-07-29T09:24:48.620Z,77504.00
2022-07-29T09:25:50.714Z,64416.00
2022-07-29T09:26:53.146Z,80736.00
2022-07-29T09:27:54.249Z,62560.00
2022-07-29T09:28:56.473Z,88000.00
2022-07-29T09:29:58.557Z,53952.00
2022-07-29T09:31:00.645Z,53088.00
2022-07-29T09:32:02.763Z,37664.00
2022-07-29T09:33:04.871Z,59104.00
2022-07-29T09:34:06.959Z,67072.00
2022-07-29T09:35:09.121Z,74848.00
2022-07-29T09:36:11.295Z,74976.00
2022-07-29T09:37:12.227Z,70176.00
2022-07-29T09:38:14.326Z,74848.00
2022-07-29T09:39:17.812Z,76928.00
2022-07-29T09:40:17.708Z,73824.00
2022-07-29T09:41:25.856Z,79872.00
2022-07-29T09:42:20.987Z,83296.00
2022-07-29T09:43:23.078Z,83136.00
2022-07-29T09:44:25.181Z,80800.00
2022-07-29T09:45:27.298Z,78976.00
2022-07-29T09:46:29.440Z,79680.00
2022-07-29T09:47:31.536Z,72288.00
2022-07-29T09:48:33.680Z,72544.00
2022-07-29T09:49:35.734Z,68992.00
2022-07-29T09:50:37.801Z,66432.00
2022-07-29T09:51:39.938Z,43360.00
2022-07-29T09:52:42.060Z,67712.00
2022-07-29T09:53:44.103Z,60384.00
2022-07-29T09:54:45.289Z,42176.00
2022-07-29T09:55:47.348Z,73280.00
2022-07-29T09:56:49.428Z,78432.00
2022-07-29T09:57:51.483Z,78016.00
2022-07-29T09:58:53.634Z,78752.00
2022-07-29T09:59:55.946Z,75168.00
2022-07-29T10:00:58.078Z,68896.00
2022-07-29T10:01:59.648Z,73504.00
2022-07-29T10:03:01.751Z,76800.00
2022-07-29T10:04:02.814Z,74944.00
2022-07-29T10:05:04.919Z,70720.00
2022-07-29T10:06:07.005Z,71776.00
2022-07-29T10:07:15.188Z,75488.00
2022-07-29T10:08:11.458Z,73088.00
2022-07-29T10:09:13.508Z,73632.00
2022-07-29T10:10:15.599Z,74656.00
2022-07-29T10:11:17.478Z,80608.00
2022-07-29T10:12:19.559Z,80416.00
2022-07-29T10:13:21.639Z,78752.00
2022-07-29T10:14:23.718Z,81440.00
2022-07-29T10:15:25.949Z,79296.00
2022-07-29T10:16:28.115Z,80608.00
2022-07-29T10:17:30.309Z,81696.00
2022-07-29T10:18:32.354Z,82144.00
2022-07-29T10:19:34.480Z,80096.00
2022-07-29T10:20:35.362Z,80864.00
2022-07-29T10:21:37.447Z,83168.00
2022-07-29T10:22:54.459Z,78112.00
2022-07-29T10:23:46.331Z,73184.00
2022-07-29T10:24:42.956Z,76800.00
2022-07-29T10:25:46.558Z,80416.00
2022-07-29T10:26:46.445Z,84352.00
2022-07-29T10:27:48.491Z,81504.00
2022-07-29T10:28:50.582Z,81984.00
2022-07-29T10:29:52.639Z,85408.00
2022-07-29T10:30:53.789Z,82432.00
2022-07-29T10:31:56.247Z,79264.00
2022-07-29T10:32:57.348Z,83104.00
2022-07-29T10:33:59.460Z,84544.00
2022-07-29T10:35:00.968Z,82848.00
2022-07-29T10:36:03.026Z,85216.00
2022-07-29T10:37:05.208Z,79904.00
2022-07-29T10:38:06.869Z,82112.00
2022-07-29T10:39:08.420Z,79072.00
2022-07-29T10:40:09.515Z,74880.00
2022-07-29T10:41:11.179Z,79808.00
2022-07-29T10:42:13.263Z,83968.00
2022-07-29T10:43:14.479Z,83616.00
2022-07-29T10:44:17.205Z,82912.00
2022-07-29T10:45:17.633Z,80416.00
2022-07-29T10:46:19.773Z,81536.00
2022-07-29T10:47:21.878Z,80832.00
2022-07-29T10:48:23.709Z,83168.00
2022-07-29T10:49:31.514Z,86912.00
2022-07-29T10:50:26.585Z,84128.00
2022-07-29T10:51:27.931Z,84352.00
2022-07-29T10:52:30.380Z,83072.00
2022-07-29T10:53:33.898Z,83904.00
2022-07-29T10:54:31.453Z,90656.00
2022-07-29T10:55:33.461Z,83584.00
2022-07-29T10:56:35.524Z,79840.00
2022-07-29T10:57:53.139Z,87520.00
2022-07-29T10:58:39.883Z,85312.00
2022-07-29T10:59:40.822Z,84512.00
2022-07-29T11:00:42.904Z,76928.00
2022-07-29T11:01:49.319Z,82720.00
2022-07-29T11:02:45.982Z,87168.00
2022-07-29T11:03:49.777Z,83616.00
2022-07-29T11:04:48.504Z,77760.00
2022-07-29T11:05:50.070Z,79616.00
2022-07-29T11:06:52.096Z,86688.00
2022-07-29T11:07:53.450Z,88224.00
2022-07-29T11:08:55.512Z,86208.00
2022-07-29T11:09:57.573Z,85856.00
2022-07-29T11:10:59.677Z,88096.00
2022-07-29T11:12:02.314Z,85952.00
2022-07-29T11:13:03.984Z,87616.00
2022-07-29T11:14:05.379Z,86304.00
2022-07-29T11:15:07.744Z,82240.00
2022-07-29T11:16:09.298Z,79008.00
2022-07-29T11:17:11.019Z,79680.00
2022-07-29T11:18:14.841Z,66848.00
2022-07-29T11:19:14.814Z,75168.00
2022-07-29T11:20:15.759Z,80832.00
2022-07-29T11:21:18.087Z,75936.00
2022-07-29T11:22:19.282Z,82464.00
2022-07-29T11:23:20.517Z,86592.00
2022-07-29T11:24:29.221Z,87776.00
2022-07-29T11:25:42.387Z,81920.00
2022-07-29T11:26:26.100Z,67584.00
2022-07-29T11:27:28.807Z,29952.00
2022-07-29T11:28:29.757Z,46720.00
2022-07-29T11:29:31.807Z,66112.00
2022-07-29T11:30:34.157Z,84544.00
2022-07-29T11:31:35.315Z,81376.00
2022-07-29T11:32:36.840Z,66560.00
2022-07-29T11:33:56.280Z,71808.00
2022-07-29T11:34:38.961Z,80544.00
2022-07-29T11:35:41.028Z,74816.00
2022-07-29T11:36:43.176Z,78112.00
2022-07-29T11:37:46.068Z,86272.00
2022-07-29T11:38:45.833Z,79616.00
2022-07-29T11:39:47.883Z,84544.00
2022-07-29T11:40:50.058Z,78752.00
2022-07-29T11:41:52.118Z,76096.00
2022-07-29T11:42:55.131Z,73120.00
2022-07-29T11:43:56.144Z,72800.00
2022-07-29T11:44:58.221Z,80192.00
2022-07-29T11:46:00.338Z,83552.00
2022-07-29T11:47:02.390Z,81024.00
2022-07-29T11:48:27.841Z,79968.00
2022-07-29T11:49:09.762Z,76640.00
2022-07-29T11:50:10.263Z,70592.00
2022-07-29T11:51:08.979Z,74912.00
2022-07-29T11:52:10.996Z,69664.00
2022-07-29T11:53:11.460Z,74432.00
2022-07-29T11:54:13.042Z,78016.00
2022-07-29T11:55:14.629Z,79104.00
2022-07-29T11:56:17.230Z,77856.00
2022-07-29T11:57:18.205Z,89216.00
2022-07-29T11:58:19.321Z,82176.00
2022-07-29T11:59:21.367Z,80000.00
2022-07-29T12:00:22.997Z,81472.00
2022-07-29T12:01:24.138Z,78848.00
2022-07-29T12:02:37.873Z,82528.00
2022-07-29T12:03:33.327Z,78976.00
2022-07-29T12:04:28.336Z,78048.00
2022-07-29T12:05:36.403Z,83392.00
2022-07-29T12:06:30.557Z,73408.00
2022-07-29T12:07:35.346Z,76672.00
2022-07-29T12:08:34.329Z,80000.00
2022-07-29T12:09:40.348Z,85632.00
2022-07-29T12:10:37.738Z,83840.00
2022-07-29T12:11:39.875Z,77120.00
2022-07-29T12:12:41.970Z,81120.00
2022-07-29T12:13:44.018Z,82976.00
2022-07-29T12:14:45.948Z,86240.00
2022-07-29T12:15:48.048Z,82560.00
2022-07-29T12:16:49.309Z,83488.00
2022-07-29T12:17:51.410Z,88096.00
2022-07-29T12:18:52.545Z,82528.00
2022-07-29T12:19:54.624Z,77184.00
2022-07-29T12:20:56.737Z,80096.00
2022-07-29T12:21:59.749Z,77024.00
2022-07-29T12:22:59.451Z,65152.00
2022-07-29T12:24:08.733Z,69504.00
2022-07-29T12:25:31.960Z,82336.00
2022-07-29T12:26:07.234Z,76160.00
2022-07-29T12:27:06.383Z,85024.00
2022-07-29T12:28:08.479Z,61184.00
2022-07-29T12:29:15.524Z,59136.00
2022-07-29T12:30:10.924Z,81728.00
2022-07-29T12:31:13.043Z,73664.00
2022-07-29T12:32:19.729Z,73184.00
2022-07-29T12:33:16.296Z,80032.00
2022-07-29T12:34:18.346Z,80736.00
2022-07-29T12:35:20.447Z,56576.00
2022-07-29T12:36:22.493Z,67264.00
2022-07-29T12:37:38.966Z,59712.00
2022-07-29T12:38:26.749Z,32448.00
2022-07-29T12:39:27.665Z,24864.00
2022-07-29T12:40:29.750Z,23744.00
2022-07-29T12:41:31.798Z,49920.00
2022-07-29T12:42:33.892Z,38368.00
2022-07-29T12:43:35.943Z,49888.00
2022-07-29T12:44:38.113Z,32032.00
2022-07-29T12:45:39.045Z,48960.00
2022-07-29T12:46:41.217Z,43968.00
2022-07-29T12:47:43.350Z,24288.00
2022-07-29T12:48:45.587Z,21952.00
2022-07-29T12:49:46.546Z,21632.00
2022-07-29T12:50:48.621Z,22176.00
2022-07-29T12:51:50.875Z,21632.00
2022-07-29T12:52:51.795Z,21600.00
2022-07-29T12:53:53.881Z,22368.00
2022-07-29T12:54:56.009Z,22592.00
2022-07-29T12:55:58.097Z,23648.00
2022-07-29T12:56:59.152Z,22880.00
2022-07-29T12:58:01.328Z,21952.00
2022-07-29T12:59:03.415Z,20704.00
2022-07-29T13:00:05.498Z,19808.00
2022-07-29T13:01:07.645Z,19328.00
2022-07-29T13:02:09.870Z,18848.00
2022-07-29T13:03:10.919Z,18304.00
2022-07-29T13:04:12.083Z,18016.00
2022-07-29T13:05:14.208Z,17696.00
2022-07-29T13:06:16.296Z,17152.00
2022-07-29T13:07:18.336Z,16400.00
2022-07-29T13:08:22.208Z,15632.00
2022-07-29T13:09:22.023Z,15100.00
2022-07-29T13:10:24.191Z,14740.00
2022-07-29T13:11:24.547Z,14484.00
2022-07-29T13:12:26.624Z,14304.00
2022-07-29T13:13:28.937Z,14152.00
2022-07-29T13:14:30.248Z,13960.00
2022-07-29T13:15:32.339Z,13624.00
2022-07-29T13:16:40.632Z,13204.00
2022-07-29T13:17:35.882Z,12860.00
2022-07-29T13:18:44.026Z,12640.00
2022-07-29T13:19:40.268Z,12448.00
2022-07-29T13:20:41.452Z,12360.00
2022-07-29T13:21:43.534Z,12284.00
2022-07-29T13:22:51.677Z,12256.00
2022-07-29T13:23:46.763Z,12200.00
2022-07-29T13:24:48.881Z,12144.00
2022-07-29T13:25:51.038Z,12136.00
2022-07-29T13:26:53.110Z,12292.00
2022-07-29T13:27:55.187Z,12808.00
2022-07-29T13:28:57.237Z,14236.00
2022-07-29T13:29:58.383Z,14516.00
2022-07-29T13:31:00.603Z,15388.00
2022-07-29T13:32:07.716Z,16100.00
2022-07-29T13:33:02.794Z,16800.00
2022-07-29T13:34:04.899Z,17568.00
2022-07-29T13:35:06.058Z,17888.00
2022-07-29T13:36:08.163Z,18240.00
2022-07-29T13:37:09.294Z,18464.00
2022-07-29T13:38:10.677Z,17984.00
2022-07-29T13:39:12.760Z,17216.00
2022-07-29T13:40:14.840Z,16672.00
2022-07-29T13:41:16.925Z,16064.00
2022-07-29T13:42:18.636Z,15768.00
2022-07-29T13:43:20.794Z,15584.00
2022-07-29T13:44:22.874Z,15268.00
2022-07-29T13:45:24.058Z,14972.00
2022-07-29T13:46:26.173Z,14640.00
2022-07-29T13:47:32.518Z,14196.00
2022-07-29T13:48:28.437Z,13628.00
2022-07-29T13:49:30.554Z,13040.00
2022-07-29T13:50:32.669Z,12536.00
2022-07-29T13:51:34.747Z,12124.00
2022-07-29T13:52:42.963Z,11692.00
2022-07-29T13:53:38.250Z,11324.00
2022-07-29T13:54:42.611Z,11096.00
2022-07-29T13:55:42.603Z,10984.00
2022-07-29T13:56:44.050Z,10980.00
2022-07-29T13:57:46.084Z,11012.00
2022-07-29T13:58:47.612Z,11056.00
2022-07-29T13:59:53.883Z,11112.00
2022-07-29T14:00:51.976Z,11208.00
2022-07-29T14:01:54.150Z,11280.00
2022-07-29T14:03:01.115Z,11284.00
2022-07-29T14:03:56.459Z,11216.00
2022-07-29T14:04:58.624Z,11116.00
2022-07-29T14:06:00.777Z,11024.00
2022-07-29T14:07:03.795Z,11036.00
2022-07-29T14:08:03.698Z,11128.00
2022-07-29T14:09:11.939Z,11252.00
2022-07-29T14:10:07.013Z,11292.00
2022-07-29T14:11:09.092Z,11288.00
2022-07-29T14:12:10.205Z,11316.00
2022-07-29T14:13:25.406Z,11448.00
2022-07-29T14:14:14.501Z,11572.00
2022-07-29T14:15:15.411Z,11624.00
2022-07-29T14:16:17.601Z,11592.00
2022-07-29T14:17:18.627Z,11484.00
2022-07-29T14:18:20.888Z,11264.00
2022-07-29T14:19:23.014Z,10920.00
2022-07-29T14:20:25.102Z,10496.00
2022-07-29T14:21:27.193Z,10016.00
2022-07-29T14:22:29.274Z,9516.00
2022-07-29T14:23:31.113Z,9040.00
2022-07-29T14:24:38.118Z,8612.00
2022-07-29T14:25:34.068Z,8236.00
2022-07-29T14:26:36.226Z,7912.00
2022-07-29T14:27:38.697Z,7608.00
2022-07-29T14:28:41.940Z,7324.00
2022-07-29T14:29:41.849Z,7064.00
2022-07-29T14:30:43.927Z,6868.00
2022-07-29T14:31:45.589Z,6776.00
2022-07-29T14:32:47.814Z,6812.00
2022-07-29T14:33:49.281Z,6984.00
2022-07-29T14:34:50.378Z,7288.00
2022-07-29T14:35:52.503Z,7672.00
2022-07-29T14:36:54.697Z,8092.00
2022-07-29T14:37:55.640Z,8468.00
2022-07-29T14:38:56.815Z,8760.00
2022-07-29T14:39:58.951Z,8920.00
2022-07-29T14:41:01.043Z,8960.00
2022-07-29T14:42:02.723Z,8940.00
2022-07-29T14:43:04.810Z,8920.00
2022-07-29T14:44:07.087Z,8956.00
2022-07-29T14:45:08.286Z,9056.00
2022-07-29T14:46:10.457Z,9196.00
2022-07-29T14:47:11.409Z,9300.00
2022-07-29T14:48:13.489Z,9344.00
2022-07-29T14:49:15.709Z,9268.00
2022-07-29T14:50:17.824Z,9100.00
2022-07-29T14:51:20.143Z,8888.00
2022-07-29T14:52:21.103Z,8660.00
2022-07-29T14:53:23.160Z,8484.00
2022-07-29T14:54:25.247Z,8396.00
2022-07-29T14:55:27.387Z,8436.00
2022-07-29T14:56:37.692Z,8532.00
2022-07-29T14:57:31.733Z,8684.00
2022-07-29T14:58:32.321Z,8812.00
2022-07-29T14:59:33.234Z,8888.00
2022-07-29T15:00:35.334Z,8916.00
2022-07-29T15:01:37.479Z,8940.00
2022-07-29T15:03:00.564Z,8964.00
2022-07-29T15:03:47.849Z,9024.00
2022-07-29T15:04:42.935Z,9144.00
2022-07-29T15:05:44.985Z,9320.00
2022-07-29T15:06:47.193Z,9540.00
2022-07-29T15:07:49.265Z,9800.00
2022-07-29T15:08:51.379Z,10012.00
2022-07-29T15:09:58.033Z,10116.00
2022-07-29T15:10:55.813Z,10040.00
2022-07-29T15:11:56.746Z,9980.00
2022-07-29T15:12:57.869Z,10004.00
2022-07-29T15:13:59.957Z,10076.00
2022-07-29T15:15:02.265Z,10092.00
2022-07-29T15:16:04.531Z,9996.00
2022-07-29T15:17:06.745Z,9820.00
2022-07-29T15:18:14.773Z,9524.00
2022-07-29T15:19:11.206Z,9144.00
2022-07-29T15:20:12.121Z,8784.00
2022-07-29T15:21:13.891Z,8504.00
2022-07-29T15:22:15.979Z,8300.00
2022-07-29T15:23:17.122Z,8176.00
2022-07-29T15:24:19.213Z,8240.00
2022-07-29T15:25:20.369Z,8476.00
2022-07-29T15:26:22.456Z,8816.00
2022-07-29T15:27:24.640Z,9100.00
2022-07-29T15:28:26.948Z,9240.00
2022-07-29T15:29:28.191Z,9248.00
2022-07-29T15:30:32.703Z,9160.00
2022-07-29T15:31:32.394Z,9024.00
2022-07-29T15:32:33.313Z,8940.00
2022-07-29T15:33:34.281Z,8948.00
2022-07-29T15:34:35.293Z,9048.00
2022-07-29T15:35:39.974Z,9160.00
2022-07-29T15:36:54.430Z,9200.00
2022-07-29T15:37:49.455Z,9124.00
2022-07-29T15:38:43.318Z,8876.00
2022-07-29T15:39:44.434Z,8608.00
2022-07-29T15:40:45.423Z,8436.00
2022-07-29T15:41:47.042Z,8192.00
2022-07-29T15:42:49.139Z,7804.00
2022-07-29T15:43:51.417Z,7292.00
2022-07-29T15:44:52.546Z,6684.00
2022-07-29T15:45:54.891Z,5884.00
2022-07-29T15:46:57.369Z,5136.00
2022-07-29T15:47:58.393Z,4400.00
2022-07-29T15:49:00.547Z,3860.00